createdAt,value
2023-02-21T00:01:05.032Z,110.78
2023-02-21T00:06:31.779Z,125.68
2023-02-21T00:11:55.942Z,130.10
2023-02-21T00:17:19.237Z,107.78
2023-02-21T00:22:42.874Z,130.18
2023-02-21T00:28:06.826Z,123.28
2023-02-21T00:33:30.077Z,108.68
2023-02-21T00:38:54.285Z,110.22
2023-02-21T00:44:17.585Z,105.40
2023-02-21T00:49:41.125Z,102.47
2023-02-21T00:55:04.894Z,123.38
2023-02-21T01:00:34.224Z,117.10
2023-02-21T01:05:58.243Z,109.18
2023-02-21T01:11:21.552Z,110.22
2023-02-21T01:16:47.894Z,116.63
2023-02-21T01:22:11.590Z,118.37
2023-02-21T01:27:35.225Z,112.38
2023-02-21T01:32:58.640Z,139.32
2023-02-21T01:38:22.885Z,135.77
2023-02-21T01:43:48.873Z,119.95
2023-02-21T01:49:15.657Z,116.95
2023-02-21T01:54:41.080Z,115.45
2023-02-21T02:00:04.712Z,117.43
2023-02-21T02:05:38.206Z,120.53
2023-02-21T02:11:04.137Z,116.40
2023-02-21T02:16:41.756Z,133.70
2023-02-21T02:22:08.707Z,123.30
2023-02-21T02:27:53.908Z,117.20
2023-02-21T02:33:44.689Z,118.47
2023-02-21T02:39:19.493Z,125.85
2023-02-21T02:44:31.195Z,115.40
2023-02-21T02:49:42.326Z,117.90
2023-02-21T02:54:47.798Z,114.95
2023-02-21T02:59:53.218Z,112.33
2023-02-21T03:05:29.589Z,103.50
2023-02-21T03:11:00.430Z,112.38
2023-02-21T03:16:16.878Z,103.60
2023-02-21T03:21:36.950Z,106.57
2023-02-21T03:26:46.381Z,103.25
2023-02-21T03:32:29.291Z,102.57
2023-02-21T03:37:37.474Z,113.20
2023-02-21T03:42:43.387Z,111.28
2023-02-21T03:47:49.456Z,109.28
2023-02-21T03:52:57.283Z,96.47
2023-02-21T03:58:03.778Z,114.10
2023-02-21T04:03:12.632Z,107.25
2023-02-21T04:08:25.364Z,90.93
2023-02-21T04:13:31.556Z,108.63
2023-02-21T04:18:38.126Z,89.28
2023-02-21T04:23:46.593Z,91.05
2023-02-21T04:28:55.062Z,89.43
2023-02-21T04:34:11.330Z,84.20
2023-02-21T04:39:20.838Z,86.95
2023-02-21T04:44:27.809Z,75.53
2023-02-21T04:49:34.693Z,92.25
2023-02-21T04:54:40.124Z,90.97
2023-02-21T04:59:46.265Z,92.53
2023-02-21T05:09:56.400Z,77.72
2023-02-21T05:15:01.630Z,80.27
2023-02-21T05:20:13.076Z,90.15
2023-02-21T05:25:23.041Z,84.20
2023-02-21T05:30:28.473Z,91.63
2023-02-21T05:35:34.319Z,94.17
2023-02-21T05:40:39.763Z,89.85
2023-02-21T05:45:46.296Z,102.87
2023-02-21T05:50:51.809Z,82.75
2023-02-21T05:55:57.559Z,92.60
2023-02-21T06:01:03.115Z,92.90
2023-02-21T06:06:09.067Z,85.90
2023-02-21T06:11:15.169Z,72.30
2023-02-21T06:21:28.371Z,75.60
2023-02-21T06:26:34.607Z,84.73
2023-02-21T06:31:42.952Z,85.55
2023-02-21T06:36:48.378Z,69.75
2023-02-21T06:41:54.812Z,82.70
2023-02-21T06:47:00.017Z,77.00
2023-02-21T06:52:05.279Z,77.25
2023-02-21T06:57:11.146Z,73.07
2023-02-21T07:02:22.558Z,97.65
2023-02-21T07:07:27.855Z,78.78
2023-02-21T07:12:36.334Z,85.68
2023-02-21T07:17:41.416Z,82.70
2023-02-21T07:22:46.930Z,68.88
2023-02-21T07:27:54.360Z,71.73
2023-02-21T07:33:02.677Z,66.95
2023-02-21T07:38:08.451Z,72.38
2023-02-21T07:43:13.913Z,69.40
2023-02-21T07:48:19.454Z,53.45
2023-02-21T07:53:25.199Z,73.00
2023-02-21T07:58:30.842Z,75.60
2023-02-21T08:03:36.393Z,52.15
2023-02-21T08:08:41.902Z,66.67
2023-02-21T08:13:47.305Z,58.53
2023-02-21T08:18:54.129Z,70.75
2023-02-21T08:24:00.000Z,63.78
2023-02-21T08:29:05.750Z,61.22
2023-02-21T08:34:11.748Z,66.07
2023-02-21T08:39:17.315Z,71.05
2023-02-21T08:44:23.563Z,62.70
2023-02-21T08:49:28.799Z,57.03
2023-02-21T08:54:37.167Z,63.08
2023-02-21T08:59:44.456Z,69.65
2023-02-21T09:04:50.092Z,53.80
2023-02-21T09:09:55.713Z,61.90
2023-02-21T09:15:00.919Z,53.17
2023-02-21T09:20:10.350Z,69.10
2023-02-21T09:25:17.517Z,61.25
2023-02-21T09:30:25.887Z,75.53
2023-02-21T09:35:34.086Z,52.55
2023-02-21T09:40:50.585Z,73.18
2023-02-21T09:51:07.300Z,57.17
2023-02-21T09:56:35.624Z,64.43
2023-02-21T10:01:56.696Z,52.35
2023-02-21T10:07:03.399Z,57.47
2023-02-21T10:12:45.811Z,41.90
2023-02-21T10:18:16.353Z,61.70
2023-02-21T10:23:51.270Z,46.28
2023-02-21T10:29:01.124Z,57.05
2023-02-21T10:34:09.824Z,59.33
2023-02-21T10:39:22.296Z,60.30
2023-02-21T10:44:35.343Z,55.90
2023-02-21T10:49:56.593Z,51.75
2023-02-21T10:55:31.212Z,50.25
2023-02-21T11:00:41.802Z,59.20
2023-02-21T11:06:03.327Z,60.90
2023-02-21T11:11:08.813Z,52.03
2023-02-21T11:16:23.772Z,70.43
2023-02-21T11:21:29.493Z,61.28
2023-02-21T11:26:40.236Z,51.43
2023-02-21T11:31:46.969Z,59.42
2023-02-21T11:36:52.630Z,59.45
2023-02-21T11:42:00.626Z,56.40
2023-02-21T11:47:11.035Z,65.45
2023-02-21T11:52:28.198Z,65.55
2023-02-21T11:57:49.606Z,60.40
2023-02-21T12:03:16.371Z,74.93
2023-02-21T12:08:40.336Z,71.80
2023-02-21T12:13:52.360Z,79.50
2023-02-21T12:19:07.999Z,77.13
2023-02-21T12:24:49.661Z,106.73
2023-02-21T12:30:20.148Z,99.75
2023-02-21T12:35:39.146Z,88.82
2023-02-21T12:41:15.141Z,100.65
2023-02-21T12:46:24.855Z,100.03
2023-02-21T12:51:37.375Z,96.50
2023-02-21T12:57:09.391Z,105.07
2023-02-21T13:02:23.499Z,97.20
2023-02-21T13:07:56.014Z,91.20
2023-02-21T13:13:24.391Z,107.43
2023-02-21T13:18:32.012Z,111.35
2023-02-21T13:24:01.908Z,115.53
2023-02-21T13:29:42.632Z,107.20
2023-02-21T13:35:10.044Z,108.88
2023-02-21T13:40:41.396Z,112.55
2023-02-21T13:45:48.148Z,103.78
2023-02-21T13:51:01.198Z,111.97
2023-02-21T13:56:16.196Z,119.55
2023-02-21T14:01:44.559Z,109.45
2023-02-21T14:07:01.512Z,98.05
2023-02-21T14:12:11.863Z,102.63
2023-02-21T14:17:21.014Z,109.95
2023-02-21T14:22:36.936Z,113.38
2023-02-21T14:27:44.505Z,111.03
2023-02-21T14:32:54.296Z,109.90
2023-02-21T14:38:19.620Z,115.60
2023-02-21T14:43:56.128Z,108.55
2023-02-21T14:54:40.473Z,109.65
2023-02-21T14:59:52.571Z,110.65
2023-02-21T15:05:19.959Z,116.80
2023-02-21T15:10:35.656Z,104.68
2023-02-21T15:15:47.177Z,110.32
2023-02-21T15:21:09.825Z,113.47
2023-02-21T15:26:24.246Z,108.35
2023-02-21T15:31:30.360Z,104.97
2023-02-21T15:36:36.483Z,107.72
2023-02-21T15:53:26.612Z,120.22
2023-02-21T15:59:15.346Z,111.43
2023-02-21T16:04:22.604Z,108.53
2023-02-21T16:10:30.699Z,119.77
2023-02-21T16:15:42.577Z,102.68
2023-02-21T16:27:19.117Z,85.95
2023-02-21T16:32:28.125Z,108.55
2023-02-21T16:37:33.827Z,104.50
2023-02-21T16:49:34.741Z,101.82
2023-02-21T16:54:40.982Z,86.47
2023-02-21T17:04:51.045Z,85.20
2023-02-21T17:09:56.288Z,79.77
2023-02-21T17:15:02.457Z,90.37
2023-02-21T17:25:13.580Z,84.95
2023-02-21T17:35:29.766Z,76.75
2023-02-21T17:40:35.244Z,91.50
2023-02-21T17:45:40.847Z,76.83
2023-02-21T17:50:46.053Z,89.60
2023-02-21T17:55:51.301Z,83.60
2023-02-21T18:00:56.855Z,76.10
2023-02-21T18:06:02.105Z,76.17
2023-02-21T18:11:11.806Z,76.23
2023-02-21T18:16:17.480Z,71.82
2023-02-21T18:21:26.481Z,68.43
2023-02-21T18:26:31.939Z,77.13
2023-02-21T18:31:37.936Z,72.63
2023-02-21T18:36:52.716Z,73.43
2023-02-21T18:41:58.756Z,72.18
2023-02-21T18:52:09.507Z,65.20
2023-02-21T18:57:15.300Z,67.25
2023-02-21T19:02:21.407Z,67.97
2023-02-21T19:12:31.746Z,77.95
2023-02-21T19:17:37.156Z,67.93
2023-02-21T19:22:42.827Z,73.07
2023-02-21T19:27:48.654Z,71.40
2023-02-21T19:32:53.902Z,68.87
2023-02-21T19:38:00.486Z,67.50
2023-02-21T19:43:06.028Z,74.55
2023-02-21T19:48:11.578Z,72.13
2023-02-21T19:53:16.950Z,68.87
2023-02-21T19:58:22.179Z,71.63
2023-02-21T20:03:27.485Z,64.93
2023-02-21T20:08:33.338Z,68.87
2023-02-21T20:13:40.007Z,59.60
2023-02-21T20:18:46.325Z,59.15
2023-02-21T20:23:53.120Z,63.38
2023-02-21T20:28:58.984Z,64.97
2023-02-21T20:34:04.909Z,70.27
2023-02-21T20:39:20.883Z,60.50
2023-02-21T20:44:26.836Z,63.17
2023-02-21T20:49:32.533Z,61.17
2023-02-21T20:54:37.854Z,66.50
2023-02-21T20:59:43.798Z,61.73
2023-02-21T21:04:49.623Z,65.45
2023-02-21T21:09:55.465Z,60.45
2023-02-21T21:15:00.864Z,59.75
2023-02-21T21:20:15.831Z,55.90
2023-02-21T21:25:24.006Z,58.92
2023-02-21T21:30:32.037Z,61.00
2023-02-21T21:35:38.557Z,62.83
2023-02-21T21:40:49.217Z,56.83
2023-02-21T21:45:55.056Z,61.85
2023-02-21T21:51:00.503Z,53.67
2023-02-21T21:56:07.148Z,53.13
2023-02-21T22:01:12.380Z,54.33
2023-02-21T22:06:17.538Z,56.72
2023-02-21T22:11:22.918Z,56.63
2023-02-21T22:16:28.957Z,59.07
2023-02-21T22:21:35.544Z,56.47
2023-02-21T22:26:41.285Z,55.15
2023-02-21T22:31:50.782Z,56.83
2023-02-21T22:37:00.024Z,55.72
2023-02-21T22:42:10.142Z,58.10
2023-02-21T22:47:15.706Z,57.75
2023-02-21T22:52:21.168Z,47.97
2023-02-21T22:57:28.956Z,56.37
2023-02-21T23:02:35.316Z,56.45
2023-02-21T23:07:40.512Z,62.95
2023-02-21T23:12:48.787Z,54.92
2023-02-21T23:17:55.378Z,51.67
2023-02-21T23:23:02.296Z,52.50
2023-02-21T23:28:10.901Z,58.70
2023-02-21T23:33:19.761Z,52.33
2023-02-21T23:38:29.299Z,53.38
2023-02-21T23:43:37.078Z,51.63
2023-02-21T23:48:42.526Z,53.60
2023-02-21T23:53:48.053Z,51.63
2023-02-21T23:58:53.455Z,54.35
